CAT9574 LEMG-EKBI
Flight info
| Callsign | CAT9574 |
|---|---|
| Flight time | N/A |
| Altitude | 34000 |
| Route | BLN N865 VTB N867 DGO L176 LUSEM DCT LULUT DCT ADABI DCT BOKNO UN858 VANAD UN874 VEKIN UN873 ADUTO/N0444F350 DCT VICOT/N0442F340 N873 SPY/N0445F350 N873 IQITA DCT REXMI DCT MIKRO DCT GELBA |
| Aircraft | B738/M-SDE2E3FGHIRWXY/LB1 |
Departure
| Time | 2026-05-04 10:44 |
|---|---|
| Airport | Málaga-Costa del Sol Airport (LEMG) |
Arrival
| Time | N/A |
|---|---|
| Airport | Billund Airport (EKBI) |
| Time | Latitude | Longitude | Altitude | Speed | Heading |
|---|---|---|---|---|---|
| 2026-05-04 10:08 | 36.67894 | -4.48952 | 41 ft | 0 kts | 206° |
| 2026-05-04 10:36 | 36.67889 | -4.48953 | 41 ft | 2 kts | 191° |
| 2026-05-04 10:36 | 36.67874 | -4.48943 | 39 ft | 3 kts | 128° |
| 2026-05-04 10:37 | 36.67881 | -4.48920 | 41 ft | 3 kts | 34° |
| 2026-05-04 10:37 | 36.67902 | -4.48906 | 41 ft | 4 kts | 28° |
| 2026-05-04 10:37 | 36.67933 | -4.48887 | 41 ft | 6 kts | 18° |
| 2026-05-04 10:37 | 36.67974 | -4.48896 | 41 ft | 6 kts | 342° |
| 2026-05-04 10:39 | 36.68051 | -4.48712 | 39 ft | 10 kts | 118° |
| 2026-05-04 10:39 | 36.68014 | -4.48627 | 39 ft | 13 kts | 118° |
| 2026-05-04 10:39 | 36.67970 | -4.48522 | 38 ft | 14 kts | 116° |
| 2026-05-04 10:40 | 36.67926 | -4.48416 | 39 ft | 13 kts | 117° |
| 2026-05-04 10:40 | 36.67883 | -4.48315 | 38 ft | 13 kts | 117° |
| 2026-05-04 10:40 | 36.67842 | -4.48218 | 36 ft | 13 kts | 118° |
| 2026-05-04 10:40 | 36.67807 | -4.48131 | 34 ft | 9 kts | 103° |
| 2026-05-04 10:41 | 36.67830 | -4.48082 | 35 ft | 7 kts | 27° |
| 2026-05-04 10:41 | 36.67877 | -4.48051 | 34 ft | 8 kts | 27° |
| 2026-05-04 10:41 | 36.67926 | -4.48021 | 36 ft | 8 kts | 20° |
| 2026-05-04 10:41 | 36.67958 | -4.48044 | 35 ft | 5 kts | 304° |
| 2026-05-04 10:42 | 36.67961 | -4.48052 | 36 ft | 5 kts | 287° |
| 2026-05-04 10:42 | 36.67973 | -4.48089 | 37 ft | 5 kts | 295° |
| 2026-05-04 10:42 | 36.68000 | -4.48152 | 36 ft | 22 kts | 298° |
| 2026-05-04 10:42 | 36.68186 | -4.48596 | 39 ft | 92 kts | 297° |
| 2026-05-04 10:43 | 36.68580 | -4.49533 | 46 ft | 150 kts | 297° |
| 2026-05-04 10:44 | 36.74772 | -4.58441 | 4078 ft | 221 kts | 313° |
| 2026-05-04 10:45 | 36.75885 | -4.59847 | 4698 ft | 229 kts | 313° |
| 2026-05-04 10:45 | 36.77000 | -4.61249 | 5454 ft | 230 kts | 313° |
| 2026-05-04 10:45 | 36.78126 | -4.62659 | 6258 ft | 230 kts | 313° |
| 2026-05-04 10:45 | 36.79277 | -4.64084 | 6919 ft | 235 kts | 313° |
| 2026-05-04 10:46 | 36.80446 | -4.65505 | 7666 ft | 236 kts | 312° |
| 2026-05-04 10:46 | 36.81680 | -4.66892 | 8337 ft | 243 kts | 323° |
| 2026-05-04 10:46 | 36.83323 | -4.67480 | 8959 ft | 259 kts | 358° |
| 2026-05-04 10:46 | 36.85139 | -4.66929 | 9377 ft | 281 kts | 26° |
| 2026-05-04 10:47 | 36.86684 | -4.65276 | 9632 ft | 306 kts | 53° |
| 2026-05-04 10:47 | 36.87902 | -4.63038 | 10177 ft | 317 kts | 57° |
| 2026-05-04 10:47 | 36.89128 | -4.60630 | 10386 ft | 340 kts | 57° |
| 2026-05-04 10:47 | 36.90433 | -4.58049 | 10573 ft | 362 kts | 57° |
| 2026-05-04 10:49 | 37.02021 | -4.39974 | 14873 ft | 395 kts | 30° |
| 2026-05-04 10:49 | 37.04332 | -4.38153 | 15405 ft | 401 kts | 29° |
| 2026-05-04 10:50 | 37.06712 | -4.36311 | 16012 ft | 404 kts | 29° |
| 2026-05-04 10:51 | 37.22175 | -4.24118 | 19578 ft | 425 kts | 30° |
| 2026-05-04 10:54 | 37.49330 | -4.02328 | 24364 ft | 456 kts | 30° |
| 2026-05-04 10:54 | 37.52006 | -4.00171 | 24738 ft | 459 kts | 30° |
| 2026-05-04 10:56 | 37.71151 | -3.84681 | 27184 ft | 476 kts | 30° |
| 2026-05-04 10:56 | 37.73942 | -3.82413 | 27543 ft | 479 kts | 30° |
| 2026-05-04 10:56 | 37.76756 | -3.80127 | 27823 ft | 482 kts | 31° |
| 2026-05-04 10:57 | 37.79586 | -3.77825 | 28158 ft | 483 kts | 31° |
| 2026-05-04 10:57 | 37.82436 | -3.75567 | 28499 ft | 484 kts | 27° |
| 2026-05-04 10:57 | 37.85468 | -3.73729 | 28783 ft | 483 kts | 17° |
| 2026-05-04 10:57 | 37.88667 | -3.72441 | 29091 ft | 483 kts | 13° |
| 2026-05-04 10:58 | 37.91902 | -3.71274 | 29377 ft | 484 kts | 12° |
| 2026-05-04 10:58 | 37.95150 | -3.70115 | 29653 ft | 487 kts | 13° |
| 2026-05-04 10:58 | 37.98408 | -3.68927 | 29956 ft | 488 kts | 13° |
| 2026-05-04 10:58 | 38.01669 | -3.67707 | 30316 ft | 487 kts | 13° |
| 2026-05-04 10:59 | 38.04905 | -3.66476 | 30720 ft | 485 kts | 13° |
| 2026-05-04 10:59 | 38.08119 | -3.65245 | 31119 ft | 482 kts | 13° |
| 2026-05-04 10:59 | 38.11321 | -3.64020 | 31446 ft | 481 kts | 13° |
| 2026-05-04 10:59 | 38.14547 | -3.62827 | 31744 ft | 480 kts | 10° |
| 2026-05-04 11:00 | 38.17810 | -3.62092 | 32027 ft | 474 kts | 1° |
| 2026-05-04 11:01 | 38.40573 | -3.60051 | 34001 ft | 470 kts | 359° |
| 2026-05-04 11:02 | 38.43848 | -3.59733 | 34008 ft | 471 kts | 360° |
| 2026-05-04 11:05 | 38.93199 | -3.54874 | 33995 ft | 481 kts | 356° |
| 2026-05-04 11:06 | 38.99861 | -3.54214 | 33998 ft | 480 kts | 356° |
| 2026-05-04 11:06 | 39.06515 | -3.53556 | 33996 ft | 479 kts | 356° |
| 2026-05-04 11:10 | 39.52986 | -3.48942 | 33996 ft | 480 kts | 356° |
| 2026-05-04 11:12 | 39.79749 | -3.46166 | 33996 ft | 486 kts | 359° |
| 2026-05-04 11:12 | 39.86483 | -3.44890 | 34002 ft | 490 kts | 2° |
| 2026-05-04 11:13 | 39.93211 | -3.43446 | 34002 ft | 490 kts | 2° |
| 2026-05-04 11:13 | 39.99955 | -3.42040 | 34004 ft | 490 kts | 2° |
| 2026-05-04 11:14 | 40.06689 | -3.40679 | 33995 ft | 490 kts | 2° |
| 2026-05-04 11:16 | 40.33543 | -3.35276 | 33994 ft | 488 kts | 2° |
| 2026-05-04 11:16 | 40.40255 | -3.33916 | 34000 ft | 488 kts | 3° |
| 2026-05-04 11:17 | 40.46961 | -3.32555 | 34002 ft | 488 kts | 3° |
| 2026-05-04 11:19 | 40.73767 | -3.27087 | 33981 ft | 486 kts | 4° |
| 2026-05-04 11:19 | 40.80449 | -3.25717 | 33988 ft | 485 kts | 4° |
| 2026-05-04 11:20 | 40.87079 | -3.24348 | 33985 ft | 486 kts | 4° |
| 2026-05-04 11:20 | 40.93745 | -3.22865 | 33984 ft | 486 kts | 5° |
| 2026-05-04 11:22 | 41.20415 | -3.16819 | 33987 ft | 486 kts | 5° |
| 2026-05-04 11:23 | 41.27092 | -3.15307 | 33990 ft | 486 kts | 5° |
| 2026-05-04 11:25 | 41.50403 | -3.10000 | 33995 ft | 485 kts | 6° |
| 2026-05-04 11:25 | 41.57059 | -3.08492 | 33987 ft | 486 kts | 6° |
| 2026-05-04 11:27 | 41.87010 | -3.01660 | 33999 ft | 486 kts | 6° |
| 2026-05-04 11:28 | 41.93674 | -3.00122 | 33989 ft | 486 kts | 6° |
| 2026-05-04 11:28 | 42.00340 | -2.98580 | 33994 ft | 486 kts | 6° |
| 2026-05-04 11:29 | 42.05882 | -2.97297 | 33989 ft | 487 kts | 6° |
| 2026-05-04 11:29 | 42.12557 | -2.95748 | 34001 ft | 487 kts | 6° |
| 2026-05-04 11:33 | 42.56216 | -2.75136 | 34020 ft | 488 kts | 43° |
| 2026-05-04 11:33 | 42.61243 | -2.68922 | 34005 ft | 489 kts | 43° |
| 2026-05-04 11:34 | 42.66305 | -2.62760 | 34012 ft | 489 kts | 42° |
| 2026-05-04 11:34 | 42.71388 | -2.56601 | 34020 ft | 489 kts | 42° |
| 2026-05-04 11:35 | 42.76438 | -2.50469 | 34022 ft | 490 kts | 42° |
| 2026-05-04 11:35 | 42.81523 | -2.44273 | 34019 ft | 491 kts | 42° |
| 2026-05-04 11:36 | 42.86614 | -2.38055 | 34020 ft | 492 kts | 43° |
| 2026-05-04 11:36 | 42.91714 | -2.31811 | 34028 ft | 493 kts | 43° |
| 2026-05-04 11:37 | 42.96820 | -2.25545 | 34039 ft | 494 kts | 43° |
| 2026-05-04 11:37 | 43.01928 | -2.19254 | 34010 ft | 495 kts | 43° |
| 2026-05-04 11:38 | 43.07034 | -2.12932 | 34023 ft | 496 kts | 43° |
| 2026-05-04 11:38 | 43.12144 | -2.06598 | 34027 ft | 495 kts | 43° |
| 2026-05-04 11:39 | 43.17246 | -2.00270 | 34025 ft | 494 kts | 43° |
| 2026-05-04 11:40 | 43.32696 | -1.81610 | 34012 ft | 495 kts | 31° |
| 2026-05-04 11:41 | 43.35694 | -1.79291 | 34039 ft | 494 kts | 27° |
| 2026-05-04 11:41 | 43.41672 | -1.74647 | 34032 ft | 494 kts | 32° |
| 2026-05-04 11:42 | 43.47405 | -1.69404 | 34017 ft | 494 kts | 34° |
| 2026-05-04 11:42 | 43.53100 | -1.64082 | 34015 ft | 495 kts | 34° |
| 2026-05-04 11:43 | 43.58831 | -1.58818 | 34020 ft | 494 kts | 33° |
| 2026-05-04 11:43 | 43.64576 | -1.53593 | 34016 ft | 494 kts | 33° |
| 2026-05-04 11:44 | 43.70317 | -1.48372 | 34017 ft | 494 kts | 33° |
| 2026-05-04 11:44 | 43.76056 | -1.43137 | 33990 ft | 494 kts | 33° |
| 2026-05-04 11:45 | 43.81783 | -1.37897 | 33988 ft | 494 kts | 33° |
| 2026-05-04 11:45 | 43.86540 | -1.33534 | 33982 ft | 493 kts | 33° |
| 2026-05-04 11:46 | 43.93466 | -1.27167 | 33983 ft | 493 kts | 33° |
| 2026-05-04 11:46 | 43.99215 | -1.21867 | 33983 ft | 493 kts | 33° |
| 2026-05-04 11:47 | 44.04886 | -1.16628 | 33982 ft | 493 kts | 33° |
| 2026-05-04 11:47 | 44.10589 | -1.11347 | 33974 ft | 492 kts | 33° |
| 2026-05-04 11:48 | 44.16284 | -1.06060 | 33966 ft | 492 kts | 34° |
| 2026-05-04 11:48 | 44.21974 | -1.00765 | 33964 ft | 491 kts | 34° |
| 2026-05-04 11:49 | 44.27659 | -0.95463 | 33966 ft | 491 kts | 34° |
| 2026-05-04 11:49 | 44.33334 | -0.90157 | 33967 ft | 491 kts | 34° |
| 2026-05-04 11:50 | 44.39018 | -0.84846 | 33961 ft | 491 kts | 32° |
| 2026-05-04 11:50 | 44.45108 | -0.80601 | 33968 ft | 489 kts | 22° |
| 2026-05-04 11:51 | 44.51378 | -0.76883 | 33967 ft | 489 kts | 21° |
| 2026-05-04 11:51 | 44.57606 | -0.73176 | 33952 ft | 489 kts | 22° |
| 2026-05-04 11:52 | 44.63856 | -0.69380 | 33944 ft | 489 kts | 22° |
| 2026-05-04 11:52 | 44.70093 | -0.65548 | 33944 ft | 488 kts | 22° |
| 2026-05-04 11:53 | 44.76317 | -0.61709 | 33938 ft | 488 kts | 23° |
| 2026-05-04 11:53 | 44.82532 | -0.57871 | 33937 ft | 487 kts | 23° |
| 2026-05-04 11:55 | 45.07258 | -0.42518 | 33946 ft | 485 kts | 23° |
| 2026-05-04 11:56 | 45.13421 | -0.38669 | 33949 ft | 484 kts | 23° |
| 2026-05-04 11:56 | 45.19589 | -0.34807 | 33932 ft | 484 kts | 24° |
| 2026-05-04 11:57 | 45.25747 | -0.30943 | 33940 ft | 484 kts | 24° |
| 2026-05-04 11:57 | 45.31906 | -0.27069 | 33945 ft | 484 kts | 24° |
| 2026-05-04 11:58 | 45.38060 | -0.23188 | 33953 ft | 484 kts | 24° |
| 2026-05-04 11:58 | 45.44213 | -0.19299 | 33945 ft | 484 kts | 24° |
| 2026-05-04 11:59 | 45.50360 | -0.15404 | 33958 ft | 483 kts | 24° |
| 2026-05-04 11:59 | 45.56512 | -0.11497 | 33972 ft | 484 kts | 24° |
| 2026-05-04 12:00 | 45.62657 | -0.07585 | 33956 ft | 484 kts | 24° |
| 2026-05-04 12:00 | 45.68801 | -0.03664 | 33942 ft | 483 kts | 24° |
| 2026-05-04 12:01 | 45.74936 | 0.00261 | 33938 ft | 483 kts | 24° |
| 2026-05-04 12:02 | 45.96377 | 0.14052 | 33936 ft | 482 kts | 24° |
| 2026-05-04 12:03 | 46.02448 | 0.17979 | 33936 ft | 481 kts | 24° |
| 2026-05-04 12:03 | 46.08546 | 0.21931 | 33937 ft | 481 kts | 24° |
| 2026-05-04 12:04 | 46.14652 | 0.25900 | 33952 ft | 481 kts | 25° |
| 2026-05-04 12:04 | 46.20766 | 0.29883 | 33929 ft | 482 kts | 25° |
| 2026-05-04 12:05 | 46.26872 | 0.33871 | 33943 ft | 481 kts | 25° |
| 2026-05-04 12:05 | 46.31943 | 0.37190 | 33952 ft | 481 kts | 25° |
| 2026-05-04 12:06 | 46.38037 | 0.41188 | 33961 ft | 480 kts | 25° |
| 2026-05-04 12:06 | 46.44123 | 0.45192 | 33964 ft | 480 kts | 25° |
| 2026-05-04 12:07 | 46.50205 | 0.49202 | 33961 ft | 480 kts | 25° |
| 2026-05-04 12:07 | 46.57340 | 0.53616 | 33951 ft | 479 kts | 15° |
| 2026-05-04 12:08 | 46.62773 | 0.55486 | 33959 ft | 478 kts | 11° |
| 2026-05-04 12:08 | 46.69238 | 0.57484 | 33947 ft | 478 kts | 11° |
| 2026-05-04 12:09 | 46.75724 | 0.59560 | 33943 ft | 477 kts | 12° |
| 2026-05-04 12:09 | 46.82206 | 0.61701 | 33952 ft | 477 kts | 12° |
| 2026-05-04 12:10 | 46.88670 | 0.63853 | 33956 ft | 476 kts | 12° |
| 2026-05-04 12:10 | 46.95139 | 0.66008 | 33948 ft | 476 kts | 12° |
| 2026-05-04 12:11 | 47.01600 | 0.68162 | 33947 ft | 476 kts | 12° |
| 2026-05-04 12:11 | 47.08119 | 0.69780 | 33955 ft | 475 kts | 4° |
| 2026-05-04 12:12 | 47.14712 | 0.70381 | 33947 ft | 474 kts | 2° |
| 2026-05-04 12:12 | 47.21292 | 0.70945 | 33958 ft | 474 kts | 2° |
| 2026-05-04 12:14 | 47.47648 | 0.73702 | 33964 ft | 475 kts | 5° |
| 2026-05-04 12:15 | 47.54072 | 0.75860 | 33980 ft | 474 kts | 19° |
| 2026-05-04 12:15 | 47.60305 | 0.79046 | 33967 ft | 474 kts | 19° |
| 2026-05-04 12:16 | 47.66557 | 0.82220 | 33937 ft | 476 kts | 19° |
| 2026-05-04 12:16 | 47.72830 | 0.85326 | 33947 ft | 475 kts | 19° |
| 2026-05-04 12:17 | 47.79093 | 0.88415 | 33955 ft | 474 kts | 19° |
| 2026-05-04 12:17 | 47.85350 | 0.91520 | 33954 ft | 474 kts | 19° |
| 2026-05-04 12:18 | 47.91604 | 0.94675 | 33953 ft | 474 kts | 19° |
| 2026-05-04 12:18 | 47.97805 | 0.97824 | 33959 ft | 474 kts | 19° |
| 2026-05-04 12:19 | 48.04040 | 1.00992 | 33969 ft | 474 kts | 19° |
| 2026-05-04 12:19 | 48.10303 | 1.04179 | 33950 ft | 475 kts | 19° |
| 2026-05-04 12:20 | 48.16553 | 1.07368 | 33962 ft | 475 kts | 19° |
| 2026-05-04 12:20 | 48.22806 | 1.10565 | 33963 ft | 474 kts | 20° |
| 2026-05-04 12:21 | 48.29060 | 1.13750 | 33966 ft | 475 kts | 20° |
| 2026-05-04 12:21 | 48.35281 | 1.16923 | 33955 ft | 475 kts | 20° |
| 2026-05-04 12:22 | 48.41532 | 1.20122 | 33960 ft | 474 kts | 20° |
| 2026-05-04 12:22 | 48.47783 | 1.23331 | 33968 ft | 474 kts | 20° |
| 2026-05-04 12:23 | 48.54020 | 1.26541 | 33971 ft | 473 kts | 20° |
| 2026-05-04 12:23 | 48.60258 | 1.29716 | 33972 ft | 473 kts | 19° |
| 2026-05-04 12:24 | 48.66505 | 1.32852 | 33973 ft | 473 kts | 19° |
| 2026-05-04 12:24 | 48.72759 | 1.36004 | 33970 ft | 473 kts | 20° |
| 2026-05-04 12:25 | 48.79009 | 1.39173 | 33969 ft | 474 kts | 20° |
| 2026-05-04 12:25 | 48.85271 | 1.42358 | 33971 ft | 475 kts | 20° |
| 2026-05-04 12:26 | 48.91537 | 1.45551 | 33992 ft | 476 kts | 20° |
| 2026-05-04 12:26 | 48.97518 | 1.49882 | 33980 ft | 478 kts | 37° |
| 2026-05-04 12:27 | 49.02412 | 1.56634 | 33988 ft | 473 kts | 52° |
| 2026-05-04 12:27 | 49.06736 | 1.64192 | 33973 ft | 471 kts | 52° |
| 2026-05-04 12:28 | 49.11042 | 1.71728 | 33964 ft | 470 kts | 52° |
| 2026-05-04 12:28 | 49.15381 | 1.79226 | 33970 ft | 469 kts | 52° |
| 2026-05-04 12:29 | 49.19665 | 1.86606 | 33970 ft | 468 kts | 52° |
| 2026-05-04 12:29 | 49.24011 | 1.94118 | 33967 ft | 468 kts | 52° |
| 2026-05-04 12:30 | 49.28296 | 2.01550 | 33974 ft | 469 kts | 52° |
| 2026-05-04 12:30 | 49.32613 | 2.09058 | 33988 ft | 470 kts | 52° |
| 2026-05-04 12:31 | 49.36931 | 2.16596 | 33984 ft | 471 kts | 52° |
| 2026-05-04 12:31 | 49.41245 | 2.24173 | 34003 ft | 471 kts | 52° |
| 2026-05-04 12:32 | 49.47717 | 2.35584 | 33993 ft | 473 kts | 52° |
| 2026-05-04 12:33 | 49.52041 | 2.43226 | 33983 ft | 474 kts | 52° |
| 2026-05-04 12:33 | 49.56718 | 2.50404 | 33976 ft | 479 kts | 38° |
| 2026-05-04 12:34 | 49.62347 | 2.55941 | 33976 ft | 481 kts | 33° |
| 2026-05-04 12:34 | 49.68073 | 2.61331 | 33984 ft | 481 kts | 33° |
| 2026-05-04 12:35 | 49.73748 | 2.66820 | 34001 ft | 482 kts | 34° |
| 2026-05-04 12:35 | 49.79422 | 2.72381 | 33988 ft | 483 kts | 34° |
| 2026-05-04 12:36 | 49.85106 | 2.77948 | 33991 ft | 482 kts | 34° |
| 2026-05-04 12:36 | 49.90773 | 2.83480 | 33993 ft | 481 kts | 34° |
| 2026-05-04 12:37 | 49.96393 | 2.89019 | 33995 ft | 481 kts | 34° |
| 2026-05-04 12:37 | 50.02037 | 2.94612 | 33977 ft | 481 kts | 34° |
| 2026-05-04 12:38 | 50.07685 | 3.00190 | 33980 ft | 480 kts | 34° |
| 2026-05-04 12:38 | 50.13327 | 3.05774 | 33975 ft | 480 kts | 34° |
| 2026-05-04 12:39 | 50.18950 | 3.11361 | 33984 ft | 479 kts | 34° |
| 2026-05-04 12:39 | 50.24668 | 3.16712 | 33978 ft | 482 kts | 26° |
| 2026-05-04 12:40 | 50.30818 | 3.20918 | 33969 ft | 483 kts | 23° |
| 2026-05-04 12:40 | 50.36985 | 3.25087 | 33975 ft | 483 kts | 24° |
| 2026-05-04 12:41 | 50.43085 | 3.29484 | 33974 ft | 483 kts | 27° |
| 2026-05-04 12:41 | 50.49080 | 3.34282 | 33969 ft | 483 kts | 27° |
| 2026-05-04 12:42 | 50.55086 | 3.38888 | 33972 ft | 484 kts | 24° |
| 2026-05-04 12:42 | 50.61258 | 3.43145 | 33969 ft | 486 kts | 23° |
| 2026-05-04 12:43 | 50.67456 | 3.47381 | 33979 ft | 486 kts | 23° |
| 2026-05-04 12:43 | 50.73644 | 3.51689 | 33978 ft | 486 kts | 24° |
| 2026-05-04 12:44 | 50.79822 | 3.56041 | 33979 ft | 486 kts | 24° |
| 2026-05-04 12:44 | 50.85999 | 3.60412 | 33982 ft | 486 kts | 24° |
| 2026-05-04 12:45 | 50.92173 | 3.64790 | 33979 ft | 486 kts | 24° |
| 2026-05-04 12:45 | 50.98349 | 3.69181 | 33979 ft | 486 kts | 24° |
| 2026-05-04 12:46 | 51.04516 | 3.73578 | 33977 ft | 486 kts | 23° |
| 2026-05-04 12:46 | 51.10683 | 3.77988 | 33979 ft | 486 kts | 23° |
| 2026-05-04 12:47 | 51.16801 | 3.82375 | 33984 ft | 485 kts | 23° |
| 2026-05-04 12:47 | 51.23004 | 3.86837 | 33989 ft | 485 kts | 23° |
| 2026-05-04 12:48 | 51.29154 | 3.91273 | 33986 ft | 485 kts | 23° |
| 2026-05-04 12:48 | 51.35306 | 3.95725 | 33992 ft | 485 kts | 23° |
| 2026-05-04 12:49 | 51.41449 | 4.00184 | 33991 ft | 485 kts | 23° |
| 2026-05-04 12:49 | 51.47553 | 4.04625 | 33990 ft | 485 kts | 23° |
| 2026-05-04 12:50 | 51.53689 | 4.09148 | 33990 ft | 485 kts | 23° |
| 2026-05-04 12:50 | 51.59812 | 4.13714 | 33989 ft | 485 kts | 23° |
| 2026-05-04 12:51 | 51.65937 | 4.18289 | 33990 ft | 485 kts | 23° |
| 2026-05-04 12:51 | 51.72053 | 4.22863 | 33990 ft | 485 kts | 23° |
| 2026-05-04 12:52 | 51.78174 | 4.27452 | 33991 ft | 485 kts | 23° |
| 2026-05-04 12:52 | 51.84287 | 4.32043 | 33997 ft | 485 kts | 23° |
| 2026-05-04 12:53 | 51.90396 | 4.36647 | 33993 ft | 485 kts | 23° |
| 2026-05-04 12:53 | 51.96514 | 4.41272 | 33990 ft | 485 kts | 23° |
| 2026-05-04 12:54 | 52.02582 | 4.45874 | 34001 ft | 484 kts | 23° |
| 2026-05-04 12:54 | 52.08689 | 4.50519 | 33992 ft | 484 kts | 22° |
| 2026-05-04 12:55 | 52.14777 | 4.55165 | 33988 ft | 484 kts | 22° |
| 2026-05-04 12:55 | 52.20871 | 4.59827 | 33992 ft | 483 kts | 22° |
| 2026-05-04 12:56 | 52.26945 | 4.64488 | 33996 ft | 482 kts | 22° |
| 2026-05-04 12:56 | 52.33010 | 4.69149 | 33994 ft | 481 kts | 22° |
| 2026-05-04 12:57 | 52.39069 | 4.73822 | 33992 ft | 481 kts | 22° |
| 2026-05-04 12:57 | 52.44092 | 4.77706 | 33996 ft | 480 kts | 22° |
| 2026-05-04 12:58 | 52.50121 | 4.82396 | 33986 ft | 480 kts | 24° |
| 2026-05-04 12:58 | 52.55568 | 4.88768 | 33993 ft | 484 kts | 43° |
| 2026-05-04 12:59 | 52.59869 | 4.97287 | 33999 ft | 485 kts | 52° |
| 2026-05-04 12:59 | 52.63959 | 5.06132 | 33980 ft | 485 kts | 52° |
| 2026-05-04 13:00 | 52.68117 | 5.14880 | 33988 ft | 484 kts | 51° |
| 2026-05-04 13:00 | 52.72287 | 5.23605 | 33992 ft | 484 kts | 51° |
| 2026-05-04 13:01 | 52.76413 | 5.32298 | 33987 ft | 484 kts | 51° |
| 2026-05-04 13:01 | 52.80549 | 5.41078 | 33991 ft | 484 kts | 51° |
| 2026-05-04 13:02 | 52.84685 | 5.49877 | 33991 ft | 485 kts | 51° |
| 2026-05-04 13:02 | 52.88816 | 5.58693 | 33988 ft | 485 kts | 51° |
| 2026-05-04 13:03 | 52.92946 | 5.67540 | 33999 ft | 485 kts | 51° |
| 2026-05-04 13:03 | 52.97070 | 5.76406 | 34001 ft | 485 kts | 51° |
| 2026-05-04 13:04 | 53.01187 | 5.85288 | 34006 ft | 485 kts | 51° |
| 2026-05-04 13:04 | 53.05297 | 5.94187 | 34010 ft | 485 kts | 51° |
| 2026-05-04 13:05 | 53.09402 | 6.03103 | 34003 ft | 485 kts | 51° |
| 2026-05-04 13:05 | 53.13347 | 6.11695 | 34009 ft | 485 kts | 51° |
| 2026-05-04 13:06 | 53.17437 | 6.20623 | 34012 ft | 485 kts | 51° |
| 2026-05-04 13:06 | 53.21496 | 6.29517 | 34014 ft | 485 kts | 51° |
| 2026-05-04 13:07 | 53.25576 | 6.38491 | 34009 ft | 485 kts | 52° |
| 2026-05-04 13:07 | 53.29648 | 6.47479 | 34009 ft | 485 kts | 52° |
| 2026-05-04 13:08 | 53.33718 | 6.56488 | 34014 ft | 485 kts | 51° |
| 2026-05-04 13:08 | 53.38345 | 6.64608 | 34016 ft | 481 kts | 39° |
| 2026-05-04 13:09 | 53.43348 | 6.72036 | 34004 ft | 481 kts | 39° |
| 2026-05-04 13:09 | 53.48303 | 6.79576 | 34010 ft | 481 kts | 40° |
| 2026-05-04 13:10 | 53.53214 | 6.87194 | 34012 ft | 481 kts | 40° |
| 2026-05-04 13:10 | 53.58148 | 6.94791 | 34018 ft | 480 kts | 38° |
| 2026-05-04 13:11 | 53.63277 | 7.02006 | 34013 ft | 480 kts | 37° |
| 2026-05-04 13:11 | 53.68412 | 7.09181 | 34018 ft | 479 kts | 37° |
| 2026-05-04 13:12 | 53.73480 | 7.16400 | 34018 ft | 479 kts | 38° |
| 2026-05-04 13:12 | 53.78551 | 7.23704 | 34026 ft | 477 kts | 38° |
| 2026-05-04 13:13 | 53.83550 | 7.30958 | 34018 ft | 471 kts | 38° |
| 2026-05-04 13:13 | 53.88979 | 7.36938 | 34022 ft | 462 kts | 19° |
| 2026-05-04 13:14 | 53.94917 | 7.40620 | 34000 ft | 441 kts | 13° |
| 2026-05-04 13:14 | 53.97832 | 7.41863 | 34009 ft | 422 kts | 5° |
| 2026-05-04 13:14 | 54.00670 | 7.42738 | 34009 ft | 409 kts | 5° |
| 2026-05-04 13:14 | 54.03434 | 7.43561 | 34004 ft | 396 kts | 4° |
| 2026-05-04 13:15 | 54.06105 | 7.44366 | 34003 ft | 384 kts | 5° |
| 2026-05-04 13:15 | 54.11385 | 7.45993 | 34056 ft | 392 kts | 5° |
| 2026-05-04 13:16 | 54.16848 | 7.47718 | 34044 ft | 405 kts | 6° |
| 2026-05-04 13:16 | 54.22391 | 7.49489 | 34032 ft | 405 kts | 6° |
| 2026-05-04 13:17 | 54.27884 | 7.51235 | 34023 ft | 403 kts | 6° |
| 2026-05-04 13:17 | 54.33363 | 7.52978 | 34018 ft | 398 kts | 6° |
| 2026-05-04 13:18 | 54.38779 | 7.54706 | 34023 ft | 393 kts | 6° |
| 2026-05-04 13:18 | 54.44130 | 7.56418 | 34023 ft | 390 kts | 6° |
| 2026-05-04 13:19 | 54.49444 | 7.58121 | 34028 ft | 387 kts | 6° |
| 2026-05-04 13:19 | 54.54738 | 7.59822 | 34033 ft | 387 kts | 6° |
| 2026-05-04 13:20 | 54.60041 | 7.61531 | 34038 ft | 388 kts | 6° |
| 2026-05-04 13:20 | 54.65360 | 7.63251 | 34036 ft | 389 kts | 6° |
| 2026-05-04 13:21 | 54.70696 | 7.64981 | 34031 ft | 391 kts | 7° |
| 2026-05-04 13:21 | 54.76053 | 7.66728 | 34035 ft | 392 kts | 7° |
| 2026-05-04 13:22 | 54.81412 | 7.68482 | 34031 ft | 392 kts | 7° |
| 2026-05-04 13:22 | 54.86765 | 7.70238 | 34018 ft | 391 kts | 7° |
| 2026-05-04 13:23 | 54.92062 | 7.71981 | 34015 ft | 388 kts | 7° |
| 2026-05-04 13:23 | 54.97352 | 7.73725 | 34018 ft | 385 kts | 7° |
| 2026-05-04 13:24 | 55.02408 | 7.76800 | 34024 ft | 388 kts | 26° |
| 2026-05-04 13:24 | 55.07072 | 7.81522 | 34017 ft | 387 kts | 28° |
| 2026-05-04 13:25 | 55.14039 | 7.88671 | 34022 ft | 387 kts | 27° |
| 2026-05-04 13:25 | 55.18706 | 7.93401 | 34022 ft | 388 kts | 27° |
| 2026-05-04 13:26 | 55.23387 | 7.98140 | 34022 ft | 389 kts | 27° |
| 2026-05-04 13:26 | 55.28072 | 8.02894 | 34022 ft | 390 kts | 27° |
| 2026-05-04 13:27 | 55.32770 | 8.07677 | 34012 ft | 390 kts | 27° |
| 2026-05-04 13:27 | 55.37439 | 8.12441 | 34010 ft | 391 kts | 28° |
| 2026-05-04 13:28 | 55.42041 | 8.17539 | 33984 ft | 393 kts | 40° |
| 2026-05-04 13:28 | 55.45668 | 8.24746 | 33997 ft | 394 kts | 49° |
| 2026-05-04 13:29 | 55.49157 | 8.32176 | 34004 ft | 393 kts | 48° |
| 2026-05-04 13:29 | 55.52680 | 8.39556 | 33996 ft | 393 kts | 47° |
| 2026-05-04 13:30 | 55.56224 | 8.46907 | 33997 ft | 393 kts | 47° |
| 2026-05-04 13:30 | 55.59739 | 8.54199 | 33997 ft | 392 kts | 47° |
| 2026-05-04 13:31 | 55.63275 | 8.61554 | 33997 ft | 392 kts | 47° |
| 2026-05-04 13:31 | 55.66803 | 8.68917 | 33992 ft | 392 kts | 47° |
| 2026-05-04 13:32 | 55.70324 | 8.76287 | 33992 ft | 391 kts | 47° |
| 2026-05-04 13:32 | 55.73835 | 8.83664 | 33988 ft | 391 kts | 47° |
| 2026-05-04 13:33 | 55.77335 | 8.91043 | 33998 ft | 391 kts | 47° |
| 2026-05-04 13:33 | 55.80845 | 8.98460 | 33997 ft | 393 kts | 47° |
| 2026-05-04 13:34 | 55.84362 | 9.05911 | 33998 ft | 393 kts | 47° |
| 2026-05-04 13:34 | 55.87879 | 9.13385 | 33993 ft | 394 kts | 47° |
| 2026-05-04 13:35 | 55.93155 | 9.24629 | 33987 ft | 394 kts | 47° |
| 2026-05-04 13:36 | 55.96663 | 9.32133 | 33977 ft | 393 kts | 47° |
| 2026-05-04 13:36 | 56.00159 | 9.39622 | 33966 ft | 392 kts | 47° |
| 2026-05-04 13:37 | 56.03642 | 9.47102 | 33955 ft | 391 kts | 47° |
| 2026-05-04 13:37 | 56.07088 | 9.54530 | 33953 ft | 390 kts | 47° |
| 2026-05-04 13:38 | 56.10549 | 9.62005 | 33954 ft | 390 kts | 47° |
| 2026-05-04 13:38 | 56.14012 | 9.69500 | 33945 ft | 390 kts | 47° |
| 2026-05-04 13:39 | 56.17475 | 9.77016 | 33944 ft | 391 kts | 47° |
| 2026-05-04 13:39 | 56.20940 | 9.84554 | 33941 ft | 392 kts | 47° |
| 2026-05-04 13:40 | 56.24407 | 9.92114 | 33936 ft | 392 kts | 47° |
| 2026-05-04 13:40 | 56.27876 | 9.99698 | 33933 ft | 393 kts | 47° |
| 2026-05-04 13:41 | 56.31351 | 10.07313 | 33936 ft | 394 kts | 47° |
| 2026-05-04 13:41 | 56.34824 | 10.14943 | 33935 ft | 394 kts | 47° |
| 2026-05-04 13:42 | 56.40041 | 10.26438 | 33934 ft | 395 kts | 47° |
| 2026-05-04 13:42 | 56.43511 | 10.34117 | 33929 ft | 395 kts | 47° |
| 2026-05-04 13:43 | 56.46980 | 10.41811 | 33932 ft | 394 kts | 47° |
| 2026-05-04 13:43 | 56.50416 | 10.49446 | 33927 ft | 394 kts | 47° |
| 2026-05-04 13:44 | 56.53872 | 10.57140 | 33924 ft | 394 kts | 47° |
| 2026-05-04 13:44 | 56.57321 | 10.64844 | 33918 ft | 393 kts | 47° |
| 2026-05-04 13:45 | 56.60769 | 10.72554 | 33914 ft | 394 kts | 47° |
| 2026-05-04 13:45 | 56.64224 | 10.80303 | 33907 ft | 394 kts | 47° |
| 2026-05-04 13:46 | 56.67674 | 10.88062 | 33896 ft | 395 kts | 47° |
| 2026-05-04 13:46 | 56.71103 | 10.95787 | 33904 ft | 395 kts | 47° |
| 2026-05-04 13:47 | 56.74556 | 11.03588 | 33894 ft | 396 kts | 47° |
| 2026-05-04 13:47 | 56.78010 | 11.11407 | 33895 ft | 396 kts | 47° |
| 2026-05-04 13:48 | 56.81469 | 11.19248 | 33894 ft | 397 kts | 47° |
| 2026-05-04 13:48 | 56.84927 | 11.27100 | 33889 ft | 397 kts | 47° |
| 2026-05-04 13:49 | 56.87830 | 11.33710 | 33889 ft | 398 kts | 47° |
| 2026-05-04 13:49 | 56.91265 | 11.41552 | 33886 ft | 398 kts | 47° |
| 2026-05-04 13:50 | 56.94724 | 11.49466 | 33885 ft | 398 kts | 47° |
| 2026-05-04 13:50 | 56.98176 | 11.57395 | 33885 ft | 398 kts | 47° |
| 2026-05-04 13:51 | 57.01628 | 11.65332 | 33880 ft | 398 kts | 47° |
| 2026-05-04 13:51 | 57.05081 | 11.73289 | 33875 ft | 398 kts | 47° |
| 2026-05-04 13:52 | 57.10255 | 11.85246 | 33880 ft | 399 kts | 47° |
| 2026-05-04 13:53 | 57.13701 | 11.93236 | 33875 ft | 399 kts | 47° |
| 2026-05-04 13:53 | 57.17153 | 12.01253 | 33874 ft | 399 kts | 47° |